sensor_id;sensor_type;location;lat;lon;timestamp;pressure;altitude;pressure_sealevel;temperature;humidity
49729;BME280;66333;49.798;10.968;2023-01-25T00:01:50;99878.28;;;5.86;72.11
49729;BME280;66333;49.798;10.968;2023-01-25T00:04:16;99874.00;;;5.85;72.10
49729;BME280;66333;49.798;10.968;2023-01-25T00:06:43;99876.50;;;5.86;71.93
49729;BME280;66333;49.798;10.968;2023-01-25T00:09:10;99872.31;;;5.84;72.13
49729;BME280;66333;49.798;10.968;2023-01-25T00:11:38;99878.38;;;5.84;72.29
49729;BME280;66333;49.798;10.968;2023-01-25T00:14:05;99880.03;;;5.85;71.93
49729;BME280;66333;49.798;10.968;2023-01-25T00:16:32;99876.59;;;5.85;71.97
49729;BME280;66333;49.798;10.968;2023-01-25T00:18:58;99879.94;;;5.87;72.30
49729;BME280;66333;49.798;10.968;2023-01-25T00:21:25;99872.31;;;5.84;71.99
49729;BME280;66333;49.798;10.968;2023-01-25T00:23:51;99867.88;;;5.86;72.25
49729;BME280;66333;49.798;10.968;2023-01-25T00:26:18;99875.69;;;5.86;72.17
49729;BME280;66333;49.798;10.968;2023-01-25T00:28:49;99864.44;;;5.85;71.75
49729;BME280;66333;49.798;10.968;2023-01-25T00:31:21;99861.09;;;5.83;71.90
49729;BME280;66333;49.798;10.968;2023-01-25T00:33:55;99853.38;;;5.82;72.30
49729;BME280;66333;49.798;10.968;2023-01-25T00:36:40;99855.03;;;5.83;72.02
49729;BME280;66333;49.798;10.968;2023-01-25T00:39:11;99849.84;;;5.83;72.22
49729;BME280;66333;49.798;10.968;2023-01-25T00:41:38;99842.97;;;5.82;72.24
49729;BME280;66333;49.798;10.968;2023-01-25T00:44:06;99833.41;;;5.82;71.99
49729;BME280;66333;49.798;10.968;2023-01-25T00:46:32;99836.06;;;5.81;72.06
49729;BME280;66333;49.798;10.968;2023-01-25T00:48:59;99838.59;;;5.82;72.17
49729;BME280;66333;49.798;10.968;2023-01-25T00:51:25;99825.66;;;5.81;72.50
49729;BME280;66333;49.798;10.968;2023-01-25T00:53:52;99829.19;;;5.80;72.04
49729;BME280;66333;49.798;10.968;2023-01-25T00:56:18;99825.59;;;5.82;72.05
49729;BME280;66333;49.798;10.968;2023-01-25T00:58:45;99830.84;;;5.81;72.09
49729;BME280;66333;49.798;10.968;2023-01-25T01:01:13;99836.94;;;5.81;72.17
49729;BME280;66333;49.798;10.968;2023-01-25T01:03:40;99827.34;;;5.82;72.27
49729;BME280;66333;49.798;10.968;2023-01-25T01:06:08;99825.66;;;5.81;71.96
49729;BME280;66333;49.798;10.968;2023-01-25T01:08:38;99828.25;;;5.81;72.25
49729;BME280;66333;49.798;10.968;2023-01-25T01:11:06;99829.19;;;5.80;72.08
49729;BME280;66333;49.798;10.968;2023-01-25T01:13:33;99832.63;;;5.80;71.95
49729;BME280;66333;49.798;10.968;2023-01-25T01:16:01;99836.06;;;5.81;72.07
49729;BME280;66333;49.798;10.968;2023-01-25T01:18:32;99836.94;;;5.81;72.18
49729;BME280;66333;49.798;10.968;2023-01-25T01:20:59;99829.13;;;5.81;72.06
49729;BME280;66333;49.798;10.968;2023-01-25T01:23:26;99825.66;;;5.81;72.11
49729;BME280;66333;49.798;10.968;2023-01-25T01:25:53;99827.41;;;5.80;71.95
49729;BME280;66333;49.798;10.968;2023-01-25T01:28:19;99827.41;;;5.80;71.88
49729;BME280;66333;49.798;10.968;2023-01-25T01:30:46;99832.72;;;5.79;71.92
49729;BME280;66333;49.798;10.968;2023-01-25T01:33:12;99834.38;;;5.80;72.22
49729;BME280;66333;49.798;10.968;2023-01-25T01:35:40;99837.91;;;5.79;72.00
49729;BME280;66333;49.798;10.968;2023-01-25T01:38:06;99834.38;;;5.80;72.28
49729;BME280;66333;49.798;10.968;2023-01-25T01:40:33;99827.50;;;5.79;71.95
49729;BME280;66333;49.798;10.968;2023-01-25T01:43:01;99837.06;;;5.78;72.12
49729;BME280;66333;49.798;10.968;2023-01-25T01:45:49;99830.19;;;5.77;72.22
49729;BME280;66333;49.798;10.968;2023-01-25T01:48:19;99829.34;;;5.77;72.34
49729;BME280;66333;49.798;10.968;2023-01-25T01:50:50;99824.16;;;5.77;72.04
49729;BME280;66333;49.798;10.968;2023-01-25T01:53:18;99827.69;;;5.76;72.40
49729;BME280;66333;49.798;10.968;2023-01-25T01:55:44;99831.97;;;5.77;72.33
49729;BME280;66333;49.798;10.968;2023-01-25T01:58:12;99825.91;;;5.76;72.01
49729;BME280;66333;49.798;10.968;2023-01-25T02:00:39;99822.47;;;5.76;71.81
49729;BME280;66333;49.798;10.968;2023-01-25T02:03:07;99834.56;;;5.77;72.16
49729;BME280;66333;49.798;10.968;2023-01-25T02:05:39;99826.84;;;5.75;72.22
49729;BME280;66333;49.798;10.968;2023-01-25T02:08:11;99826.75;;;5.77;72.16
49729;BME280;66333;49.798;10.968;2023-01-25T02:10:40;99824.16;;;5.77;72.21
49729;BME280;66333;49.798;10.968;2023-01-25T02:13:07;99825.84;;;5.78;71.98
49729;BME280;66333;49.798;10.968;2023-01-25T02:15:36;99833.72;;;5.76;72.11
49729;BME280;66333;49.798;10.968;2023-01-25T02:18:04;99822.47;;;5.76;72.01
49729;BME280;66333;49.798;10.968;2023-01-25T02:20:34;99815.59;;;5.75;72.20
49729;BME280;66333;49.798;10.968;2023-01-25T02:23:06;99815.59;;;5.75;72.09
49729;BME280;66333;49.798;10.968;2023-01-25T02:25:36;99817.28;;;5.76;72.12
49729;BME280;66333;49.798;10.968;2023-01-25T02:28:08;99818.22;;;5.75;71.85
49729;BME280;66333;49.798;10.968;2023-01-25T02:30:35;99821.66;;;5.75;72.19
49729;BME280;66333;49.798;10.968;2023-01-25T02:33:02;99827.88;;;5.73;72.16
49729;BME280;66333;49.798;10.968;2023-01-25T02:35:40;99825.16;;;5.74;72.05
49729;BME280;66333;49.798;10.968;2023-01-25T02:38:08;99838.25;;;5.73;71.94
49729;BME280;66333;49.798;10.968;2023-01-25T02:40:43;99827.88;;;5.73;72.07
49729;BME280;66333;49.798;10.968;2023-01-25T02:43:10;99828.75;;;5.72;72.29
49729;BME280;66333;49.798;10.968;2023-01-25T02:45:36;99823.56;;;5.72;72.13
49729;BME280;66333;49.798;10.968;2023-01-25T02:48:04;99826.16;;;5.72;72.12
49729;BME280;66333;49.798;10.968;2023-01-25T02:50:30;99820.94;;;5.72;72.17
49729;BME280;66333;49.798;10.968;2023-01-25T02:52:57;99820.28;;;5.68;72.19
49729;BME280;66333;49.798;10.968;2023-01-25T02:55:23;99814.09;;;5.71;72.19
49729;BME280;66333;49.798;10.968;2023-01-25T02:57:51;99815.75;;;5.72;72.31
49729;BME280;66333;49.798;10.968;2023-01-25T03:00:18;99815.75;;;5.72;72.01
49729;BME280;66333;49.798;10.968;2023-01-25T03:02:44;99820.94;;;5.72;72.03
49729;BME280;66333;49.798;10.968;2023-01-25T03:05:11;99810.63;;;5.70;72.00
49729;BME280;66333;49.798;10.968;2023-01-25T03:07:37;99815.94;;;5.69;72.25
49729;BME280;66333;49.798;10.968;2023-01-25T03:10:04;99817.59;;;5.70;72.03
49729;BME280;66333;49.798;10.968;2023-01-25T03:12:31;99819.28;;;5.71;72.06
49729;BME280;66333;49.798;10.968;2023-01-25T03:14:59;99808.88;;;5.71;72.21
49729;BME280;66333;49.798;10.968;2023-01-25T03:17:25;99795.97;;;5.69;72.20
49729;BME280;66333;49.798;10.968;2023-01-25T03:19:52;99807.94;;;5.72;72.03
49729;BME280;66333;49.798;10.968;2023-01-25T03:22:19;99802.00;;;5.70;71.94
49729;BME280;66333;49.798;10.968;2023-01-25T03:24:45;99796.97;;;5.66;72.19
49729;BME280;66333;49.798;10.968;2023-01-25T03:27:11;99793.44;;;5.68;72.26
49729;BME280;66333;49.798;10.968;2023-01-25T03:29:39;99797.81;;;5.67;72.05
49729;BME280;66333;49.798;10.968;2023-01-25T03:32:07;99793.44;;;5.68;71.96
49729;BME280;66333;49.798;10.968;2023-01-25T03:34:33;99789.94;;;5.69;72.05
49729;BME280;66333;49.798;10.968;2023-01-25T03:37:00;99781.38;;;5.66;72.03
49729;BME280;66333;49.798;10.968;2023-01-25T03:39:27;99778.78;;;5.66;71.95
49729;BME280;66333;49.798;10.968;2023-01-25T03:41:53;99782.22;;;5.67;72.24
49729;BME280;66333;49.798;10.968;2023-01-25T03:44:20;99784.91;;;5.65;72.22
49729;BME280;66333;49.798;10.968;2023-01-25T03:46:46;99785.00;;;5.64;71.96
49729;BME280;66333;49.798;10.968;2023-01-25T03:49:14;99782.31;;;5.65;72.19
49729;BME280;66333;49.798;10.968;2023-01-25T03:51:40;99793.44;;;5.68;71.96
49729;BME280;66333;49.798;10.968;2023-01-25T03:54:07;99790.09;;;5.65;72.36
49729;BME280;66333;49.798;10.968;2023-01-25T03:56:34;99790.09;;;5.65;72.08
49729;BME280;66333;49.798;10.968;2023-01-25T03:59:01;99785.66;;;5.68;71.95
49729;BME280;66333;49.798;10.968;2023-01-25T04:01:27;99783.97;;;5.66;72.08
49729;BME280;66333;49.798;10.968;2023-01-25T04:03:54;99783.88;;;5.68;71.87
49729;BME280;66333;49.798;10.968;2023-01-25T04:06:22;99778.03;;;5.64;72.15
49729;BME280;66333;49.798;10.968;2023-01-25T04:08:48;99769.31;;;5.65;71.95
49729;BME280;66333;49.798;10.968;2023-01-25T04:11:15;99761.50;;;5.65;71.99
49729;BME280;66333;49.798;10.968;2023-01-25T04:13:41;99756.41;;;5.64;72.20
49729;BME280;66333;49.798;10.968;2023-01-25T04:16:09;99748.66;;;5.62;72.23
49729;BME280;66333;49.798;10.968;2023-01-25T04:18:36;99744.28;;;5.63;72.29
49729;BME280;66333;49.798;10.968;2023-01-25T04:21:03;99740.78;;;5.64;71.97
49729;BME280;66333;49.798;10.968;2023-01-25T04:23:31;99740.84;;;5.62;72.09
49729;BME280;66333;49.798;10.968;2023-01-25T04:25:58;99732.22;;;5.62;72.08
49729;BME280;66333;49.798;10.968;2023-01-25T04:28:26;99723.50;;;5.63;72.28
49729;BME280;66333;49.798;10.968;2023-01-25T04:30:53;99728.63;;;5.64;72.06
49729;BME280;66333;49.798;10.968;2023-01-25T04:33:20;99727.00;;;5.62;72.14
49729;BME280;66333;49.798;10.968;2023-01-25T04:35:47;99724.50;;;5.60;72.23
49729;BME280;66333;49.798;10.968;2023-01-25T04:38:13;99719.22;;;5.62;72.01
49729;BME280;66333;49.798;10.968;2023-01-25T04:40:41;99721.81;;;5.62;72.08
49729;BME280;66333;49.798;10.968;2023-01-25T04:43:08;99715.88;;;5.60;71.93
49729;BME280;66333;49.798;10.968;2023-01-25T04:45:36;99715.78;;;5.61;72.17
49729;BME280;66333;49.798;10.968;2023-01-25T04:48:04;99708.06;;;5.60;71.76
49729;BME280;66333;49.798;10.968;2023-01-25T04:50:34;99709.84;;;5.59;72.29
49729;BME280;66333;49.798;10.968;2023-01-25T04:53:00;99721.91;;;5.60;72.10
49729;BME280;66333;49.798;10.968;2023-01-25T04:55:27;99702.88;;;5.60;72.15
49729;BME280;66333;49.798;10.968;2023-01-25T04:57:55;99717.63;;;5.59;71.93
49729;BME280;66333;49.798;10.968;2023-01-25T05:00:21;99714.09;;;5.60;72.02
49729;BME280;66333;49.798;10.968;2023-01-25T05:02:48;99715.03;;;5.59;72.22
49729;BME280;66333;49.798;10.968;2023-01-25T05:05:14;99710.56;;;5.61;72.18
49729;BME280;66333;49.798;10.968;2023-01-25T05:07:41;99718.38;;;5.61;72.05
49729;BME280;66333;49.798;10.968;2023-01-25T05:10:09;99708.91;;;5.60;71.95
49729;BME280;66333;49.798;10.968;2023-01-25T05:12:35;99710.56;;;5.61;72.29
49729;BME280;66333;49.798;10.968;2023-01-25T05:15:04;99708.06;;;5.60;72.17
49729;BME280;66333;49.798;10.968;2023-01-25T05:17:30;99701.19;;;5.59;72.35
49729;BME280;66333;49.798;10.968;2023-01-25T05:19:57;99696.84;;;5.59;72.24
49729;BME280;66333;49.798;10.968;2023-01-25T05:22:23;99705.47;;;5.60;71.99
49729;BME280;66333;49.798;10.968;2023-01-25T05:24:50;99697.56;;;5.61;72.10
49729;BME280;66333;49.798;10.968;2023-01-25T05:27:18;99695.91;;;5.60;71.99
49729;BME280;66333;49.798;10.968;2023-01-25T05:29:44;99693.31;;;5.60;71.99
49729;BME280;66333;49.798;10.968;2023-01-25T05:32:14;99697.75;;;5.58;72.33
49729;BME280;66333;49.798;10.968;2023-01-25T05:34:41;99695.16;;;5.58;72.18
49729;BME280;66333;49.798;10.968;2023-01-25T05:37:09;99685.69;;;5.57;72.07
49729;BME280;66333;49.798;10.968;2023-01-25T05:39:36;99689.69;;;5.63;72.40
49729;BME280;66333;49.798;10.968;2023-01-25T05:42:03;99690.63;;;5.62;72.24
49729;BME280;66333;49.798;10.968;2023-01-25T05:44:33;99693.31;;;5.60;72.23
49729;BME280;66333;49.798;10.968;2023-01-25T05:47:00;99696.66;;;5.62;72.05
49729;BME280;66333;49.798;10.968;2023-01-25T05:49:28;99689.78;;;5.61;72.17
49729;BME280;66333;49.798;10.968;2023-01-25T05:51:54;99694.22;;;5.59;71.87
49729;BME280;66333;49.798;10.968;2023-01-25T05:54:21;99689.03;;;5.59;72.04
49729;BME280;66333;49.798;10.968;2023-01-25T05:56:48;99679.56;;;5.58;72.21
49729;BME280;66333;49.798;10.968;2023-01-25T05:59:15;99682.06;;;5.60;72.24
49729;BME280;66333;49.798;10.968;2023-01-25T06:01:41;99679.56;;;5.58;72.26
49729;BME280;66333;49.798;10.968;2023-01-25T06:04:08;99681.41;;;5.56;72.28
49729;BME280;66333;49.798;10.968;2023-01-25T06:06:39;99680.41;;;5.59;72.26
49729;BME280;66333;49.798;10.968;2023-01-25T06:09:05;99679.56;;;5.58;72.68
49729;BME280;66333;49.798;10.968;2023-01-25T06:11:32;99680.41;;;5.59;72.50
49729;BME280;66333;49.798;10.968;2023-01-25T06:13:58;99676.63;;;5.64;72.18
49729;BME280;66333;49.798;10.968;2023-01-25T06:16:25;99685.25;;;5.65;71.79
49729;BME280;66333;49.798;10.968;2023-01-25T06:18:51;99683.59;;;5.64;72.10
49729;BME280;66333;49.798;10.968;2023-01-25T06:21:18;99677.53;;;5.63;72.14
49729;BME280;66333;49.798;10.968;2023-01-25T06:23:46;99671.66;;;5.60;72.26
49729;BME280;66333;49.798;10.968;2023-01-25T06:26:13;99677.88;;;5.57;72.05
49729;BME280;66333;49.798;10.968;2023-01-25T06:28:40;99680.41;;;5.59;72.24
49729;BME280;66333;49.798;10.968;2023-01-25T06:31:09;99683.09;;;5.57;72.27
49729;BME280;66333;49.798;10.968;2023-01-25T06:33:36;99678.72;;;5.58;72.10
49729;BME280;66333;49.798;10.968;2023-01-25T06:36:04;99676.03;;;5.59;71.94
49729;BME280;66333;49.798;10.968;2023-01-25T06:38:32;99679.38;;;5.46;70.25
49729;BME280;66333;49.798;10.968;2023-01-25T06:41:00;99680.06;;;5.49;70.58
49729;BME280;66333;49.798;10.968;2023-01-25T06:43:28;99685.28;;;5.49;69.79
49729;BME280;66333;49.798;10.968;2023-01-25T06:45:58;99683.41;;;5.51;69.30
49729;BME280;66333;49.798;10.968;2023-01-25T06:48:25;99678.22;;;5.51;69.33
49729;BME280;66333;49.798;10.968;2023-01-25T06:50:53;99683.41;;;5.51;70.38
49729;BME280;66333;49.798;10.968;2023-01-25T06:53:20;99685.09;;;5.52;70.37
49729;BME280;66333;49.798;10.968;2023-01-25T06:55:46;99680.06;;;5.49;70.78
49729;BME280;66333;49.798;10.968;2023-01-25T06:58:14;99680.06;;;5.49;70.86
49729;BME280;66333;49.798;10.968;2023-01-25T07:00:41;99680.06;;;5.49;70.71
49729;BME280;66333;49.798;10.968;2023-01-25T07:03:07;99679.16;;;5.50;70.88
49729;BME280;66333;49.798;10.968;2023-01-25T07:05:33;99682.69;;;5.49;70.89
49729;BME280;66333;49.798;10.968;2023-01-25T07:08:00;99686.75;;;5.53;70.88
49729;BME280;66333;49.798;10.968;2023-01-25T07:10:26;99687.78;;;5.51;70.97
49729;BME280;66333;49.798;10.968;2023-01-25T07:12:53;99684.34;;;5.50;71.43
49729;BME280;66333;49.798;10.968;2023-01-25T07:15:21;99674.69;;;5.52;71.01
49729;BME280;66333;49.798;10.968;2023-01-25T07:17:47;99679.16;;;5.50;71.37
49729;BME280;66333;49.798;10.968;2023-01-25T07:20:14;99673.94;;;5.50;71.08
49729;BME280;66333;49.798;10.968;2023-01-25T07:22:41;99678.22;;;5.51;71.27
49729;BME280;66333;49.798;10.968;2023-01-25T07:25:08;99671.34;;;5.50;71.30
49729;BME280;66333;49.798;10.968;2023-01-25T07:27:34;99677.38;;;5.51;71.41
49729;BME280;66333;49.798;10.968;2023-01-25T07:30:01;99669.59;;;5.51;71.18
49729;BME280;66333;49.798;10.968;2023-01-25T07:32:29;99667.81;;;5.51;71.15
49729;BME280;66333;49.798;10.968;2023-01-25T07:34:55;99679.91;;;5.52;71.40
49729;BME280;66333;49.798;10.968;2023-01-25T07:37:22;99678.22;;;5.51;71.28
49729;BME280;66333;49.798;10.968;2023-01-25T07:39:49;99670.50;;;5.50;71.29
49729;BME280;66333;49.798;10.968;2023-01-25T07:42:15;99677.28;;;5.52;71.39
49729;BME280;66333;49.798;10.968;2023-01-25T07:44:42;99676.53;;;5.50;71.19
49729;BME280;66333;49.798;10.968;2023-01-25T07:47:09;99683.41;;;5.51;71.40
49729;BME280;66333;49.798;10.968;2023-01-25T07:49:36;99678.22;;;5.51;71.26
49729;BME280;66333;49.798;10.968;2023-01-25T07:52:03;99682.59;;;5.51;71.50
49729;BME280;66333;49.798;10.968;2023-01-25T07:54:30;99670.50;;;5.50;71.69
49729;BME280;66333;49.798;10.968;2023-01-25T07:56:56;99674.88;;;5.49;71.31
49729;BME280;66333;49.798;10.968;2023-01-25T07:59:23;99668.66;;;5.52;71.39
49729;BME280;66333;49.798;10.968;2023-01-25T08:01:50;99674.88;;;5.49;71.47
49729;BME280;66333;49.798;10.968;2023-01-25T08:04:17;99674.69;;;5.52;71.61
49729;BME280;66333;49.798;10.968;2023-01-25T08:06:45;99676.53;;;5.50;71.34
49729;BME280;66333;49.798;10.968;2023-01-25T08:09:14;99683.41;;;5.51;71.31
49729;BME280;66333;49.798;10.968;2023-01-25T08:11:41;99671.34;;;5.50;71.40
49729;BME280;66333;49.798;10.968;2023-01-25T08:14:08;99678.22;;;5.51;71.51
49729;BME280;66333;49.798;10.968;2023-01-25T08:16:35;99666.16;;;5.50;71.38
49729;BME280;66333;49.798;10.968;2023-01-25T08:19:03;99674.03;;;5.49;71.23
49729;BME280;66333;49.798;10.968;2023-01-25T08:21:31;99673.13;;;5.50;71.24
49729;BME280;66333;49.798;10.968;2023-01-25T08:24:01;99668.00;;;5.48;71.43
49729;BME280;66333;49.798;10.968;2023-01-25T08:26:28;99668.00;;;5.48;71.08
49729;BME280;66333;49.798;10.968;2023-01-25T08:28:56;99671.53;;;5.47;71.50
49729;BME280;66333;49.798;10.968;2023-01-25T08:31:25;99660.13;;;5.50;71.48
49729;BME280;66333;49.798;10.968;2023-01-25T08:33:52;99669.69;;;5.49;71.60
49729;BME280;66333;49.798;10.968;2023-01-25T08:36:19;99657.59;;;5.48;71.55
49729;BME280;66333;49.798;10.968;2023-01-25T08:38:52;99657.59;;;5.48;71.38
49729;BME280;66333;49.798;10.968;2023-01-25T08:41:20;99651.56;;;5.48;71.46
49729;BME280;66333;49.798;10.968;2023-01-25T08:43:47;99653.16;;;5.50;71.70
49729;BME280;66333;49.798;10.968;2023-01-25T08:46:15;99647.22;;;5.48;71.52
49729;BME280;66333;49.798;10.968;2023-01-25T08:48:42;99647.28;;;5.47;71.33
49729;BME280;66333;49.798;10.968;2023-01-25T08:51:10;99652.41;;;5.48;71.61
49729;BME280;66333;49.798;10.968;2023-01-25T08:53:37;99649.03;;;5.46;71.54
49729;BME280;66333;49.798;10.968;2023-01-25T08:56:05;99645.53;;;5.47;71.37
49729;BME280;66333;49.798;10.968;2023-01-25T08:58:36;99644.66;;;5.47;71.48
49729;BME280;66333;49.798;10.968;2023-01-25T09:01:04;99642.16;;;5.45;71.39
49729;BME280;66333;49.798;10.968;2023-01-25T09:03:34;99655.16;;;5.45;71.44
49729;BME280;66333;49.798;10.968;2023-01-25T09:06:01;99647.28;;;5.47;71.51
49729;BME280;66333;49.798;10.968;2023-01-25T09:08:27;99644.84;;;5.44;71.62
49729;BME280;66333;49.798;10.968;2023-01-25T09:10:53;99635.13;;;5.47;71.70
49729;BME280;66333;49.798;10.968;2023-01-25T09:13:20;99643.00;;;5.46;71.65
49729;BME280;66333;49.798;10.968;2023-01-25T09:15:48;99635.13;;;5.47;71.24
49729;BME280;66333;49.798;10.968;2023-01-25T09:18:14;99633.28;;;5.49;71.65
49729;BME280;66333;49.798;10.968;2023-01-25T09:20:41;99626.41;;;5.48;71.57
49729;BME280;66333;49.798;10.968;2023-01-25T09:23:07;99629.94;;;5.47;71.73
49729;BME280;66333;49.798;10.968;2023-01-25T09:25:34;99629.94;;;5.47;71.75
49729;BME280;66333;49.798;10.968;2023-01-25T09:28:01;99614.34;;;5.47;71.41
49729;BME280;66333;49.798;10.968;2023-01-25T09:30:35;99626.94;;;5.39;70.19
49729;BME280;66333;49.798;10.968;2023-01-25T09:33:02;99625.59;;;5.32;70.17
49729;BME280;66333;49.798;10.968;2023-01-25T09:35:29;99625.59;;;5.32;69.98
49729;BME280;66333;49.798;10.968;2023-01-25T09:37:56;99626.44;;;5.32;70.39
49729;BME280;66333;49.798;10.968;2023-01-25T09:40:24;99631.44;;;5.35;70.61
49729;BME280;66333;49.798;10.968;2023-01-25T09:42:59;99627.91;;;5.36;70.04
49729;BME280;66333;49.798;10.968;2023-01-25T09:45:31;99626.09;;;5.38;70.33
49729;BME280;66333;49.798;10.968;2023-01-25T09:48:08;99625.22;;;5.38;70.45
49729;BME280;66333;49.798;10.968;2023-01-25T09:50:37;99619.13;;;5.39;70.61
49729;BME280;66333;49.798;10.968;2023-01-25T09:53:17;99620.72;;;5.42;70.58
49729;BME280;66333;49.798;10.968;2023-01-25T09:55:49;99613.75;;;5.42;70.65
49729;BME280;66333;49.798;10.968;2023-01-25T09:58:19;99613.75;;;5.42;70.60
49729;BME280;66333;49.798;10.968;2023-01-25T10:00:50;99617.28;;;5.41;70.69
49729;BME280;66333;49.798;10.968;2023-01-25T10:03:23;99613.00;;;5.40;70.79
49729;BME280;66333;49.798;10.968;2023-01-25T10:05:53;99614.69;;;5.41;70.68
49729;BME280;66333;49.798;10.968;2023-01-25T10:08:26;99614.84;;;5.38;71.05
49729;BME280;66333;49.798;10.968;2023-01-25T10:10:59;99626.09;;;5.38;71.04
49729;BME280;66333;49.798;10.968;2023-01-25T10:13:27;99618.22;;;5.40;70.75
49729;BME280;66333;49.798;10.968;2023-01-25T10:16:00;99613.16;;;5.37;70.94
49729;BME280;66333;49.798;10.968;2023-01-25T10:18:32;99611.34;;;5.39;70.83
49729;BME280;66333;49.798;10.968;2023-01-25T10:21:02;99614.84;;;5.38;70.85
49729;BME280;66333;49.798;10.968;2023-01-25T10:23:46;99606.13;;;5.39;71.01
49729;BME280;66333;49.798;10.968;2023-01-25T10:26:21;99600.94;;;5.39;71.01
49729;BME280;66333;49.798;10.968;2023-01-25T10:28:53;99600.94;;;5.39;71.13
49729;BME280;66333;49.798;10.968;2023-01-25T10:31:29;99587.16;;;5.37;70.81
49729;BME280;66333;49.798;10.968;2023-01-25T10:34:01;99590.53;;;5.39;70.69
49729;BME280;66333;49.798;10.968;2023-01-25T10:36:29;99581.81;;;5.40;70.98
49729;BME280;66333;49.798;10.968;2023-01-25T10:38:56;99578.44;;;5.38;70.73
49729;BME280;66333;49.798;10.968;2023-01-25T10:41:27;99578.28;;;5.41;71.16
49729;BME280;66333;49.798;10.968;2023-01-25T10:43:56;99574.03;;;5.40;71.03
49729;BME280;66333;49.798;10.968;2023-01-25T10:46:45;99560.19;;;5.40;70.93
49729;BME280;66333;49.798;10.968;2023-01-25T10:49:21;99564.56;;;5.39;71.12
49729;BME280;66333;49.798;10.968;2023-01-25T10:51:48;99550.63;;;5.40;71.06
49729;BME280;66333;49.798;10.968;2023-01-25T10:54:15;99558.44;;;5.40;71.20
49729;BME280;66333;49.798;10.968;2023-01-25T10:56:43;99556.66;;;5.41;71.07
49729;BME280;66333;49.798;10.968;2023-01-25T10:59:17;99552.31;;;5.41;71.25
49729;BME280;66333;49.798;10.968;2023-01-25T11:01:46;99552.31;;;5.41;71.24
49729;BME280;66333;49.798;10.968;2023-01-25T11:04:38;99548.69;;;5.44;71.03
49729;BME280;66333;49.798;10.968;2023-01-25T11:07:24;99544.31;;;5.44;70.91
49729;BME280;66333;49.798;10.968;2023-01-25T11:09:51;99545.25;;;5.43;71.27
49729;BME280;66333;49.798;10.968;2023-01-25T11:12:19;99543.56;;;5.42;71.24
49729;BME280;66333;49.798;10.968;2023-01-25T11:14:47;99543.00;;;5.37;71.58
49729;BME280;66333;49.798;10.968;2023-01-25T11:17:24;99534.84;;;5.43;71.34
49729;BME280;66333;49.798;10.968;2023-01-25T11:20:09;99526.31;;;5.41;71.35
49729;BME280;66333;49.798;10.968;2023-01-25T11:22:48;99520.19;;;5.42;71.14
49729;BME280;66333;49.798;10.968;2023-01-25T11:25:27;99520.28;;;5.41;71.30
49729;BME280;66333;49.798;10.968;2023-01-25T11:28:10;99520.19;;;5.42;71.21
49729;BME280;66333;49.798;10.968;2023-01-25T11:30:36;99505.44;;;5.43;71.03
49729;BME280;66333;49.798;10.968;2023-01-25T11:33:08;99502.00;;;5.42;71.27
49729;BME280;66333;49.798;10.968;2023-01-25T11:35:40;99505.53;;;5.41;71.21
49729;BME280;66333;49.798;10.968;2023-01-25T11:38:12;99505.53;;;5.41;71.18
49729;BME280;66333;49.798;10.968;2023-01-25T11:40:44;99500.31;;;5.41;71.22
49729;BME280;66333;49.798;10.968;2023-01-25T11:43:22;99500.31;;;5.41;71.20
49729;BME280;66333;49.798;10.968;2023-01-25T11:46:09;99486.41;;;5.42;71.01
49729;BME280;66333;49.798;10.968;2023-01-25T11:48:59;99488.06;;;5.43;71.25
49729;BME280;66333;49.798;10.968;2023-01-25T11:51:32;99474.34;;;5.41;71.19
49729;BME280;66333;49.798;10.968;2023-01-25T11:54:11;99471.72;;;5.41;71.55
49729;BME280;66333;49.798;10.968;2023-01-25T11:56:53;99468.31;;;5.41;71.23
49729;BME280;66333;49.798;10.968;2023-01-25T11:59:44;99463.00;;;5.42;71.30
49729;BME280;66333;49.798;10.968;2023-01-25T12:02:49;99451.78;;;5.42;71.64
49729;BME280;66333;49.798;10.968;2023-01-25T12:05:30;99436.28;;;5.40;71.16
49729;BME280;66333;49.798;10.968;2023-01-25T12:08:13;99443.16;;;5.41;71.49
49729;BME280;66333;49.798;10.968;2023-01-25T12:10:48;99436.09;;;5.43;71.43
49729;BME280;66333;49.798;10.968;2023-01-25T12:13:23;99425.88;;;5.40;71.24
49729;BME280;66333;49.798;10.968;2023-01-25T12:16:00;99424.22;;;5.39;71.24
49729;BME280;66333;49.798;10.968;2023-01-25T12:18:46;99416.22;;;5.42;71.30
49729;BME280;66333;49.798;10.968;2023-01-25T12:21:23;99404.06;;;5.43;71.37
49729;BME280;66333;49.798;10.968;2023-01-25T12:24:04;99405.81;;;5.42;71.16
49729;BME280;66333;49.798;10.968;2023-01-25T12:26:44;99398.03;;;5.42;71.37
49729;BME280;66333;49.798;10.968;2023-01-25T12:29:20;99385.03;;;5.42;71.46
49729;BME280;66333;49.798;10.968;2023-01-25T12:31:53;99370.38;;;5.41;71.15
49729;BME280;66333;49.798;10.968;2023-01-25T12:34:22;99363.50;;;5.40;71.24
49729;BME280;66333;49.798;10.968;2023-01-25T12:36:51;99366.00;;;5.42;71.37
49729;BME280;66333;49.798;10.968;2023-01-25T12:39:23;99366.09;;;5.40;71.03
49729;BME280;66333;49.798;10.968;2023-01-25T12:41:53;99358.31;;;5.40;71.39
49729;BME280;66333;49.798;10.968;2023-01-25T12:44:25;99358.31;;;5.40;71.44
49729;BME280;66333;49.798;10.968;2023-01-25T12:46:58;99352.28;;;5.40;71.24
49729;BME280;66333;49.798;10.968;2023-01-25T12:49:29;99353.94;;;5.41;71.11
49729;BME280;66333;49.798;10.968;2023-01-25T12:52:03;99349.56;;;5.41;71.28
49729;BME280;66333;49.798;10.968;2023-01-25T12:54:35;99352.19;;;5.41;71.36
49729;BME280;66333;49.798;10.968;2023-01-25T12:57:09;99342.72;;;5.40;71.20
49729;BME280;66333;49.798;10.968;2023-01-25T12:59:45;99331.56;;;5.38;71.50
49729;BME280;66333;49.798;10.968;2023-01-25T13:02:29;99329.72;;;5.40;71.45
49729;BME280;66333;49.798;10.968;2023-01-25T13:05:09;99327.28;;;5.37;71.11
49729;BME280;66333;49.798;10.968;2023-01-25T13:07:43;99321.94;;;5.40;70.93
49729;BME280;66333;49.798;10.968;2023-01-25T13:10:24;99325.34;;;5.41;71.03
49729;BME280;66333;49.798;10.968;2023-01-25T13:12:53;99321.94;;;5.40;71.07